Time;durP1;ratioP1;P1;durP2;ratioP2;P2;SDS_P1;SDS_P2;PMS_P1;PMS_P2;Temp;Humidity;BMP_temperature;BMP_pressure;BME280_temperature;BME280_humidity;BME280_pressure;Samples;Min_cycle;Max_cycle;Signal;HPM_P1;HPM_P2
2023/03/08 00:00:39;;;;;;;15.93;7.93;;;;;;;5.10;nan;-23959.13;5013756;28;20271;-76
2023/03/08 00:03:04;;;;;;;14.60;6.43;;;;;;;5.13;nan;-23959.97;5028667;28;20180;-76
2023/03/08 00:05:29;;;;;;;13.47;7.17;;;;;;;5.15;nan;-23960.53;5011944;28;20243;-74
2023/03/08 00:07:55;;;;;;;17.03;6.53;;;;;;;5.18;nan;-23961.38;5012955;28;20283;-74
2023/03/08 00:10:21;;;;;;;12.17;6.97;;;;;;;5.44;nan;-23968.63;5012872;28;20208;-77
2023/03/08 00:12:46;;;;;;;10.00;6.53;;;;;;;5.23;nan;-23962.81;5013850;28;20549;-74
2023/03/08 00:15:12;;;;;;;14.80;7.13;;;;;;;5.11;nan;-23959.25;5013300;28;20180;-74
2023/03/08 00:17:38;;;;;;;13.37;7.50;;;;;;;4.96;nan;-23955.00;5012896;28;20172;-74
2023/03/08 00:20:06;;;;;;;10.63;6.23;;;;;;;4.86;nan;-23952.28;5012866;28;20176;-75
2023/03/08 00:22:39;;;;;;;19.50;7.33;;;;;;;5.23;nan;-23962.81;5012374;28;20761;-75
2023/03/08 00:25:07;;;;;;;10.80;6.60;;;;;;;4.81;nan;-23950.84;5012661;28;20198;-74
2023/03/08 00:27:33;;;;;;;10.80;6.27;;;;;;;5.08;nan;-23958.53;5013135;28;20160;-75
2023/03/08 00:29:59;;;;;;;12.20;5.90;;;;;;;5.06;nan;-23957.84;5012461;28;20180;-76
2023/03/08 00:32:25;;;;;;;13.10;7.00;;;;;;;5.00;nan;-23956.13;5012613;28;20180;-72
2023/03/08 00:34:51;;;;;;;9.97;6.80;;;;;;;4.82;nan;-23951.16;5012806;28;20186;-76
2023/03/08 00:37:16;;;;;;;14.53;7.63;;;;;;;4.88;nan;-23953.00;5027886;28;20176;-76
2023/03/08 00:39:42;;;;;;;11.03;6.00;;;;;;;4.43;nan;-23940.19;5011043;28;20176;-76
2023/03/08 00:42:07;;;;;;;15.90;7.37;;;;;;;4.80;nan;-23950.56;5012674;28;20319;-74
2023/03/08 00:44:33;;;;;;;11.23;6.50;;;;;;;4.61;nan;-23945.16;5010814;28;20183;-73
2023/03/08 00:46:58;;;;;;;12.00;6.73;;;;;;;4.01;nan;-23928.38;5012371;28;20183;-77
2023/03/08 00:49:24;;;;;;;11.83;6.50;;;;;;;4.00;nan;-23928.09;5012151;28;20182;-77
2023/03/08 00:51:49;;;;;;;11.30;6.37;;;;;;;4.01;nan;-23928.38;5012602;28;20726;-76
2023/03/08 00:54:14;;;;;;;11.40;6.93;;;;;;;4.15;nan;-23932.34;5012423;28;20179;-73
2023/03/08 00:56:40;;;;;;;22.30;7.27;;;;;;;4.44;nan;-23940.63;5014867;28;20222;-76
2023/03/08 00:59:06;;;;;;;13.47;7.23;;;;;;;4.38;nan;-23938.75;5012615;28;20266;-76
2023/03/08 01:01:32;;;;;;;7.47;5.40;;;;;;;3.53;nan;-23914.97;5010912;28;20192;-75
2023/03/08 01:03:58;;;;;;;13.80;6.80;;;;;;;4.07;nan;-23929.94;5005326;28;20624;-75
2023/03/08 01:06:23;;;;;;;10.43;6.17;;;;;;;3.99;nan;-23927.81;5025511;28;20186;-76
2023/03/08 01:08:49;;;;;;;13.20;6.67;;;;;;;4.07;nan;-23929.94;5010536;28;20184;-75
2023/03/08 01:11:24;;;;;;;10.57;6.10;;;;;;;4.05;nan;-23929.50;5012152;28;20234;-74
2023/03/08 01:13:51;;;;;;;23.83;6.17;;;;;;;3.77;nan;-23921.53;5012090;28;20261;-74
2023/03/08 01:16:18;;;;;;;8.13;5.40;;;;;;;4.00;nan;-23928.22;5012118;28;20617;-76
2023/03/08 01:18:44;;;;;;;9.97;5.80;;;;;;;4.19;nan;-23933.34;5012173;28;20176;-73
2023/03/08 01:21:10;;;;;;;7.60;5.77;;;;;;;4.16;nan;-23932.50;5011502;28;20204;-75
2023/03/08 01:23:35;;;;;;;10.80;6.13;;;;;;;3.90;nan;-23925.38;5010835;28;20545;-73
2023/03/08 01:26:05;;;;;;;12.23;5.83;;;;;;;3.79;nan;-23922.09;5012111;28;20255;-76
2023/03/08 01:28:30;;;;;;;7.37;4.67;;;;;;;3.56;nan;-23915.81;5026989;28;20205;-76
2023/03/08 01:31:07;;;;;;;13.37;5.47;;;;;;;3.45;nan;-23912.69;5012281;28;20179;-76
2023/03/08 01:33:33;;;;;;;6.97;4.57;;;;;;;3.64;nan;-23917.81;5011080;28;20172;-75
2023/03/08 01:35:59;;;;;;;13.43;4.80;;;;;;;3.53;nan;-23914.97;5011504;28;20230;-73
2023/03/08 01:38:24;;;;;;;8.90;4.60;;;;;;;3.55;nan;-23915.41;5010618;28;20665;-74
2023/03/08 01:40:58;;;;;;;9.70;6.00;;;;;;;3.37;nan;-23910.28;5011668;28;20620;-75
2023/03/08 01:43:28;;;;;;;11.77;5.57;;;;;;;3.55;nan;-23915.41;5011820;28;20164;-74
2023/03/08 01:46:06;;;;;;;7.27;5.00;;;;;;;3.58;nan;-23916.25;5012251;28;20247;-76
2023/03/08 01:48:37;;;;;;;8.30;5.03;;;;;;;3.63;nan;-23917.53;5011524;28;20200;-75
2023/03/08 01:51:05;;;;;;;13.23;6.07;;;;;;;3.22;nan;-23906.13;5011567;28;20184;-75
2023/03/08 01:53:33;;;;;;;9.00;4.83;;;;;;;3.57;nan;-23915.97;5011800;28;20177;-77
2023/03/08 01:55:59;;;;;;;7.57;4.83;;;;;;;3.06;nan;-23901.56;5012024;28;20226;-74
2023/03/08 01:58:25;;;;;;;11.57;5.90;;;;;;;2.85;nan;-23895.59;5014265;28;20267;-73
2023/03/08 02:00:50;;;;;;;8.40;4.90;;;;;;;3.09;nan;-23902.44;5015294;28;20334;-76
2023/03/08 02:03:15;;;;;;;11.93;5.40;;;;;;;3.48;nan;-23913.56;5014079;28;20631;-74
2023/03/08 02:05:42;;;;;;;12.43;5.80;;;;;;;3.20;nan;-23905.41;5013587;28;20176;-73
2023/03/08 02:08:08;;;;;;;10.67;5.40;;;;;;;3.06;nan;-23901.56;5012804;28;20184;-76
2023/03/08 02:10:35;;;;;;;8.13;4.60;;;;;;;2.76;nan;-23893.00;5010486;28;20173;-73
2023/03/08 02:13:03;;;;;;;6.67;4.30;;;;;;;3.16;nan;-23904.44;5011695;28;20626;-73
2023/03/08 02:15:29;;;;;;;7.80;4.03;;;;;;;3.18;nan;-23904.84;5011269;28;20234;-73
2023/03/08 02:17:54;;;;;;;6.97;4.03;;;;;;;2.78;nan;-23893.72;5012322;28;20204;-74
2023/03/08 02:20:29;;;;;;;6.23;4.10;;;;;;;2.98;nan;-23899.28;5012116;28;20620;-75
2023/03/08 02:22:54;;;;;;;7.83;4.30;;;;;;;2.99;nan;-23899.56;5011687;28;20652;-74
2023/03/08 02:25:23;;;;;;;10.57;5.00;;;;;;;2.67;nan;-23890.59;5011993;28;20263;-73
2023/03/08 02:27:51;;;;;;;7.30;4.47;;;;;;;3.08;nan;-23902.28;5014007;28;20179;-75
2023/03/08 02:30:23;;;;;;;8.93;4.23;;;;;;;2.77;nan;-23893.44;5008762;28;20203;-75
2023/03/08 02:32:49;;;;;;;7.93;4.23;;;;;;;3.04;nan;-23901.16;5015518;28;20267;-76
2023/03/08 02:35:14;;;;;;;10.60;4.40;;;;;;;3.06;nan;-23901.72;5014714;28;20627;-75
2023/03/08 02:37:39;;;;;;;9.93;5.60;;;;;;;2.79;nan;-23893.88;5014678;28;20172;-75
2023/03/08 02:40:06;;;;;;;6.00;4.50;;;;;;;3.09;nan;-23902.56;5013099;28;20608;-75
2023/03/08 02:42:31;;;;;;;8.20;4.60;;;;;;;2.96;nan;-23898.72;5012507;28;20594;-73
2023/03/08 02:44:57;;;;;;;6.33;4.90;;;;;;;2.88;nan;-23896.44;5013858;28;20635;-76
2023/03/08 02:47:22;;;;;;;7.77;4.60;;;;;;;2.93;nan;-23897.88;5012833;28;20338;-76
2023/03/08 02:49:47;;;;;;;6.33;4.50;;;;;;;2.93;nan;-23898.00;5014045;28;20643;-74
2023/03/08 02:52:13;;;;;;;6.23;4.03;;;;;;;2.95;nan;-23898.44;5012058;28;20176;-73
2023/03/08 02:54:38;;;;;;;9.17;4.20;;;;;;;2.97;nan;-23899.00;5009781;28;20255;-76
2023/03/08 02:57:04;;;;;;;7.27;4.03;;;;;;;2.97;nan;-23899.00;5013250;28;20230;-75
2023/03/08 02:59:29;;;;;;;10.27;5.10;;;;;;;2.90;nan;-23897.00;5014735;28;20234;-75
2023/03/08 03:01:56;;;;;;;8.47;4.37;;;;;;;2.94;nan;-23898.28;5015665;28;20657;-73
2023/03/08 03:04:21;;;;;;;10.00;4.40;;;;;;;2.84;nan;-23895.44;5013739;28;20226;-73
2023/03/08 03:06:47;;;;;;;10.60;5.67;;;;;;;2.58;nan;-23888.16;5014209;28;20212;-77
2023/03/08 03:09:12;;;;;;;16.63;4.37;;;;;;;2.74;nan;-23892.44;5014011;28;20621;-76
2023/03/08 03:11:39;;;;;;;4.93;3.90;;;;;;;2.77;nan;-23893.31;5012530;28;20188;-73
2023/03/08 03:14:05;;;;;;;7.70;4.00;;;;;;;2.29;nan;-23879.75;5013739;28;20203;-75
2023/03/08 03:16:30;;;;;;;7.43;4.07;;;;;;;2.58;nan;-23888.03;5014766;28;20214;-74
2023/03/08 03:18:56;;;;;;;14.00;5.40;;;;;;;2.62;nan;-23889.16;5029361;28;20624;-73
2023/03/08 03:21:22;;;;;;;8.80;4.03;;;;;;;2.60;nan;-23888.59;5028648;28;20580;-73
2023/03/08 03:23:48;;;;;;;13.10;5.27;;;;;;;2.56;nan;-23887.59;5029075;28;20172;-75
2023/03/08 03:26:20;;;;;;;15.20;4.87;;;;;;;2.71;nan;-23891.59;5013245;28;20195;-74
2023/03/08 03:28:46;;;;;;;10.67;5.33;;;;;;;2.41;nan;-23883.31;5007945;28;20605;-74
2023/03/08 03:31:15;;;;;;;6.60;4.47;;;;;;;2.39;nan;-23882.75;5028587;28;20229;-74
2023/03/08 03:33:40;;;;;;;5.93;3.83;;;;;;;2.59;nan;-23888.44;5012441;28;20224;-73
2023/03/08 03:36:08;;;;;;;7.97;5.00;;;;;;;2.64;nan;-23889.88;5013867;28;20646;-76
2023/03/08 03:38:34;;;;;;;14.37;4.63;;;;;;;2.36;nan;-23881.88;5011968;28;20243;-77
2023/03/08 03:41:09;;;;;;;8.77;4.63;;;;;;;2.22;nan;-23877.88;5013750;28;20239;-77
2023/03/08 03:43:35;;;;;;;8.50;4.67;;;;;;;2.39;nan;-23882.75;5014171;28;20176;-75
2023/03/08 03:46:04;;;;;;;4.17;3.10;;;;;;;2.35;nan;-23881.59;5011911;28;20221;-76
2023/03/08 03:48:30;;;;;;;16.37;5.17;;;;;;;2.41;nan;-23883.31;5012246;28;20632;-74
2023/03/08 03:50:57;;;;;;;8.93;4.23;;;;;;;2.62;nan;-23889.16;5028443;28;20290;-76
2023/03/08 03:53:23;;;;;;;5.70;3.67;;;;;;;2.52;nan;-23886.31;5013011;28;20175;-74
2023/03/08 03:55:49;;;;;;;5.87;3.80;;;;;;;2.76;nan;-23893.00;5012093;28;20236;-75
2023/03/08 03:58:14;;;;;;;9.07;4.20;;;;;;;2.36;nan;-23881.88;5013401;28;20180;-73
2023/03/08 04:00:39;;;;;;;10.07;4.10;;;;;;;2.64;nan;-23889.88;5028229;28;20329;-71
2023/03/08 04:03:05;;;;;;;7.63;4.23;;;;;;;2.58;nan;-23888.03;5013165;28;20190;-76
2023/03/08 04:05:30;;;;;;;6.07;3.73;;;;;;;2.60;nan;-23888.59;5008096;28;20199;-73
2023/03/08 04:07:56;;;;;;;10.57;4.70;;;;;;;2.70;nan;-23891.31;5013377;28;20183;-77
2023/03/08 04:10:21;;;;;;;6.77;4.63;;;;;;;2.80;nan;-23894.31;5013280;28;20639;-73
2023/03/08 04:12:48;;;;;;;7.10;3.97;;;;;;;2.56;nan;-23887.59;5045025;28;20298;-72
2023/03/08 04:15:13;;;;;;;8.23;4.33;;;;;;;2.26;nan;-23879.03;5011722;28;20672;-76
2023/03/08 04:17:39;;;;;;;10.43;4.60;;;;;;;2.59;nan;-23888.44;5013357;28;20172;-73
2023/03/08 04:20:05;;;;;;;9.57;4.87;;;;;;;2.33;nan;-23880.88;5013076;28;20180;-75
2023/03/08 04:22:31;;;;;;;9.90;4.63;;;;;;;2.46;nan;-23884.59;5021702;28;20688;-72
2023/03/08 04:24:56;;;;;;;12.33;5.07;;;;;;;2.26;nan;-23879.03;4998470;28;20185;-75
2023/03/08 04:27:22;;;;;;;10.37;3.93;;;;;;;2.50;nan;-23885.88;4998341;28;20637;-73
2023/03/08 04:29:47;;;;;;;7.90;3.03;;;;;;;2.31;nan;-23880.47;5013913;28;20196;-76
2023/03/08 04:32:12;;;;;;;7.57;3.93;;;;;;;2.49;nan;-23885.59;4997665;28;20189;-73
2023/03/08 04:34:38;;;;;;;5.70;4.03;;;;;;;2.26;nan;-23878.88;4997973;28;20188;-73
2023/03/08 04:37:03;;;;;;;6.97;3.37;;;;;;;2.42;nan;-23883.44;5013680;28;20188;-74
2023/03/08 04:39:29;;;;;;;6.60;4.00;;;;;;;2.28;nan;-23879.59;5012906;28;20654;-76
2023/03/08 04:41:54;;;;;;;5.50;3.43;;;;;;;2.33;nan;-23880.88;4996481;28;20266;-74
2023/03/08 04:44:20;;;;;;;6.30;3.70;;;;;;;2.12;nan;-23875.03;4998328;28;20192;-74
2023/03/08 04:46:45;;;;;;;11.60;4.50;;;;;;;2.50;nan;-23885.72;4999107;28;20197;-73
2023/03/08 04:49:11;;;;;;;10.80;3.63;;;;;;;2.64;nan;-23889.88;4997263;28;20198;-72
2023/03/08 04:51:36;;;;;;;5.20;3.87;;;;;;;2.36;nan;-23881.75;4998279;28;20190;-74
2023/03/08 04:54:03;;;;;;;9.77;4.93;;;;;;;2.63;nan;-23889.59;4997988;28;20184;-75
2023/03/08 04:56:29;;;;;;;5.80;3.90;;;;;;;2.60;nan;-23888.72;4995964;28;20260;-76
2023/03/08 04:58:54;;;;;;;6.40;3.97;;;;;;;2.57;nan;-23887.72;4998117;28;20664;-73
2023/03/08 05:01:22;;;;;;;7.13;4.03;;;;;;;2.62;nan;-23889.31;4998038;28;20219;-74
2023/03/08 05:03:51;;;;;;;7.80;4.47;;;;;;;2.35;nan;-23881.59;4996435;28;20200;-75
2023/03/08 05:06:19;;;;;;;6.90;3.80;;;;;;;2.88;nan;-23896.44;5012599;28;20376;-75
2023/03/08 05:08:45;;;;;;;8.57;5.23;;;;;;;2.82;nan;-23894.72;5000448;28;20198;-75
2023/03/08 05:11:18;;;;;;;4.80;3.70;;;;;;;2.72;nan;-23891.88;4996271;28;20184;-75
2023/03/08 05:13:43;;;;;;;11.57;4.87;;;;;;;2.81;nan;-23894.44;4997868;28;21436;-77
2023/03/08 05:16:09;;;;;;;5.83;3.53;;;;;;;2.90;nan;-23897.00;5007438;28;20689;-74
2023/03/08 05:18:34;;;;;;;10.60;4.17;;;;;;;3.00;nan;-23899.88;5022486;28;20187;-75
2023/03/08 05:21:12;;;;;;;9.20;4.77;;;;;;;2.93;nan;-23897.88;5023177;28;20215;-75
2023/03/08 05:23:37;;;;;;;6.57;3.83;;;;;;;3.16;nan;-23904.44;5011978;28;20277;-72
2023/03/08 05:26:05;;;;;;;8.40;4.70;;;;;;;3.07;nan;-23902.00;5026758;28;20225;-74
2023/03/08 05:28:33;;;;;;;7.27;4.27;;;;;;;3.46;nan;-23912.84;5010684;28;20234;-76
2023/03/08 05:31:06;;;;;;;8.53;3.67;;;;;;;3.27;nan;-23907.41;5043758;28;20195;-74
2023/03/08 05:33:33;;;;;;;6.27;3.93;;;;;;;3.59;nan;-23916.53;5043451;28;20211;-74
2023/03/08 05:35:58;;;;;;;7.30;5.00;;;;;;;3.54;nan;-23915.25;5010883;28;20180;-75
2023/03/08 05:38:24;;;;;;;8.37;4.77;;;;;;;3.81;nan;-23922.66;5012678;28;20175;-72
2023/03/08 05:40:50;;;;;;;7.50;4.43;;;;;;;3.86;nan;-23924.09;5013234;28;20266;-73
2023/03/08 05:43:16;;;;;;;12.50;4.77;;;;;;;4.13;nan;-23931.66;5013766;28;20188;-75
2023/03/08 05:45:42;;;;;;;9.80;5.27;;;;;;;4.32;nan;-23937.19;5009780;28;20717;-80
2023/03/08 05:48:08;;;;;;;7.00;4.20;;;;;;;4.50;nan;-23942.03;5011332;28;20192;-75
2023/03/08 05:50:36;;;;;;;7.03;4.17;;;;;;;4.64;nan;-23946.16;5037121;28;20216;-79
2023/03/08 05:53:01;;;;;;;6.80;4.40;;;;;;;4.63;nan;-23945.88;5012652;28;20184;-76
2023/03/08 05:55:27;;;;;;;10.17;4.80;;;;;;;4.29;nan;-23936.34;5011028;28;20585;-80
2023/03/08 05:57:52;;;;;;;5.77;3.93;;;;;;;4.43;nan;-23940.34;5012025;28;20334;-78
2023/03/08 06:00:18;;;;;;;8.13;4.63;;;;;;;4.25;nan;-23935.06;5012999;28;20188;-77
2023/03/08 06:02:44;;;;;;;5.20;4.17;;;;;;;4.67;nan;-23947.03;5031103;28;20205;-74
2023/03/08 06:05:09;;;;;;;9.57;4.73;;;;;;;4.80;nan;-23950.56;5031033;28;20176;-76
2023/03/08 06:07:35;;;;;;;5.83;4.13;;;;;;;4.62;nan;-23945.47;5016275;28;20190;-77
2023/03/08 06:10:00;;;;;;;4.93;3.73;;;;;;;4.68;nan;-23947.31;5019462;28;20184;-77
2023/03/08 06:12:25;;;;;;;7.67;3.60;;;;;;;4.72;nan;-23948.31;5016724;28;20183;-80
2023/03/08 06:14:51;;;;;;;5.73;4.00;;;;;;;5.03;nan;-23957.13;5014032;28;20187;-76
2023/03/08 06:17:16;;;;;;;7.77;4.47;;;;;;;5.18;nan;-23961.25;5013607;28;20194;-75
2023/03/08 06:19:42;;;;;;;6.80;4.43;;;;;;;5.19;nan;-23961.66;5013958;28;20632;-77
2023/03/08 06:22:07;;;;;;;6.47;4.07;;;;;;;5.18;nan;-23961.25;5014174;28;20210;-76
2023/03/08 06:24:33;;;;;;;8.47;4.30;;;;;;;5.69;nan;-23975.59;5030627;28;20662;-75
2023/03/08 06:26:58;;;;;;;7.17;4.43;;;;;;;5.98;nan;-23983.72;5014030;28;20230;-75
2023/03/08 06:29:24;;;;;;;6.17;3.97;;;;;;;6.09;nan;-23986.97;5014428;28;20257;-77
2023/03/08 06:31:50;;;;;;;8.53;4.30;;;;;;;6.50;nan;-23998.47;5012977;28;20273;-78
2023/03/08 06:34:15;;;;;;;4.50;3.50;;;;;;;6.57;nan;-24000.47;5014152;28;20180;-74
2023/03/08 06:36:41;;;;;;;7.17;4.63;;;;;;;6.82;nan;-24007.28;5030348;28;20278;-76
2023/03/08 06:39:07;;;;;;;10.37;4.83;;;;;;;6.76;nan;-24005.72;5015552;28;20191;-75
2023/03/08 06:41:32;;;;;;;7.83;4.73;;;;;;;7.13;nan;-24016.06;5015518;28;20200;-75
2023/03/08 06:43:58;;;;;;;6.00;3.83;;;;;;;6.93;nan;-24010.41;5013194;28;20598;-74
2023/03/08 06:46:23;;;;;;;6.33;3.80;;;;;;;7.28;nan;-24020.31;5014879;28;20806;-76
2023/03/08 06:48:49;;;;;;;15.50;3.93;;;;;;;7.11;nan;-24015.50;5030099;28;20554;-76
2023/03/08 06:51:16;;;;;;;7.47;4.37;;;;;;;7.54;nan;-24027.69;5014476;28;20563;-73
2023/03/08 06:53:41;;;;;;;6.73;3.73;;;;;;;7.70;nan;-24032.09;5014834;28;20211;-74
2023/03/08 06:56:10;;;;;;;8.60;4.80;;;;;;;7.71;nan;-24032.22;5013148;28;20248;-75
2023/03/08 06:58:36;;;;;;;7.20;4.47;;;;;;;8.03;nan;-24041.28;5013887;28;20215;-74
2023/03/08 07:01:03;;;;;;;9.27;4.70;;;;;;;8.45;nan;-24052.91;5013919;28;20239;-76
2023/03/08 07:03:28;;;;;;;5.73;4.17;;;;;;;8.46;nan;-24053.19;5012912;28;20184;-76
2023/03/08 07:06:06;;;;;;;6.43;4.37;;;;;;;8.90;nan;-24065.50;5012550;28;20180;-73
2023/03/08 07:08:32;;;;;;;7.43;4.27;;;;;;;8.59;nan;-24057.00;5013855;28;20709;-75
2023/03/08 07:10:58;;;;;;;5.57;3.77;;;;;;;8.79;nan;-24062.66;5012892;28;20230;-74
2023/03/08 07:13:24;;;;;;;4.57;3.13;;;;;;;9.26;nan;-24075.81;5030594;28;20183;-75
2023/03/08 07:15:50;;;;;;;4.87;3.33;;;;;;;9.28;nan;-24076.25;5012951;28;20179;-73
2023/03/08 07:18:17;;;;;;;5.67;3.80;;;;;;;9.19;nan;-24073.84;5012626;28;20183;-73
2023/03/08 07:20:42;;;;;;;6.07;3.73;;;;;;;9.75;nan;-24089.38;5014336;28;20195;-76
2023/03/08 07:23:07;;;;;;;6.87;3.70;;;;;;;9.77;nan;-24090.09;5013695;28;20218;-75
2023/03/08 07:25:33;;;;;;;6.28;4.22;;;;;;;10.10;nan;-24099.13;5012254;28;20608;-75
2023/03/08 07:27:59;;;;;;;6.95;4.13;;;;;;;10.02;nan;-24097.03;5013649;28;20191;-73
2023/03/08 07:30:25;;;;;;;6.80;4.60;;;;;;;10.38;nan;-24107.03;5013552;28;20674;-73
2023/03/08 07:32:52;;;;;;;6.15;3.58;;;;;;;10.52;nan;-24111.00;5012579;28;20180;-75
2023/03/08 07:35:17;;;;;;;7.20;4.00;;;;;;;10.40;nan;-24107.47;5028855;28;20219;-76
2023/03/08 07:37:45;;;;;;;7.13;3.92;;;;;;;10.27;nan;-24103.94;5014208;28;20228;-73
2023/03/08 07:40:13;;;;;;;7.20;3.72;;;;;;;10.18;nan;-24101.41;5011805;28;20177;-76
2023/03/08 07:42:39;;;;;;;4.15;3.13;;;;;;;10.29;nan;-24104.38;5013408;28;20840;-75
2023/03/08 07:45:05;;;;;;;5.22;3.22;;;;;;;10.43;nan;-24108.31;5014147;28;20203;-75
2023/03/08 07:47:30;;;;;;;6.60;4.18;;;;;;;10.62;nan;-24113.69;5015676;28;20502;-76
2023/03/08 07:49:56;;;;;;;6.20;3.60;;;;;;;10.56;nan;-24111.97;5011988;28;20188;-76
2023/03/08 07:52:27;;;;;;;5.80;3.75;;;;;;;10.69;nan;-24115.66;5014986;28;20207;-73
2023/03/08 07:54:52;;;;;;;6.95;3.70;;;;;;;10.95;nan;-24122.84;5028204;28;20183;-75
2023/03/08 07:57:17;;;;;;;7.03;4.20;;;;;;;11.11;nan;-24127.22;5013167;28;20216;-76
2023/03/08 07:59:43;;;;;;;6.18;3.60;;;;;;;10.78;nan;-24118.03;5013380;28;20168;-74
2023/03/08 08:02:13;;;;;;;5.15;3.53;;;;;;;11.41;nan;-24135.81;5015360;28;20591;-76
2023/03/08 08:04:39;;;;;;;4.65;3.60;;;;;;;11.33;nan;-24133.56;5031386;28;20180;-74
2023/03/08 08:07:05;;;;;;;4.90;3.40;;;;;;;11.62;nan;-24141.44;5015071;28;20187;-74
2023/03/08 08:09:31;;;;;;;8.02;4.03;;;;;;;11.65;nan;-24142.44;5030920;28;20195;-76
2023/03/08 08:11:56;;;;;;;6.65;3.33;;;;;;;11.72;nan;-24144.41;5015609;28;20175;-74
2023/03/08 08:14:22;;;;;;;5.78;3.88;;;;;;;12.09;nan;-24154.69;5015204;28;20176;-73
2023/03/08 08:16:47;;;;;;;8.43;3.65;;;;;;;12.13;nan;-24155.66;5028826;28;20191;-72
2023/03/08 08:19:13;;;;;;;11.73;4.82;;;;;;;12.21;nan;-24158.06;4988658;28;20184;-76
2023/03/08 08:21:39;;;;;;;7.07;4.43;;;;;;;12.38;nan;-24162.72;4339242;28;20864;-75
2023/03/08 08:24:05;;;;;;;7.30;3.85;;;;;;;12.43;nan;-24164.13;4862799;28;20198;-74
2023/03/08 08:26:31;;;;;;;11.00;4.25;;;;;;;12.25;nan;-24159.19;5059562;28;20195;-74
2023/03/08 08:28:56;;;;;;;8.82;4.18;;;;;;;12.79;nan;-24174.09;5029801;28;20172;-74
2023/03/08 08:31:27;;;;;;;7.70;4.25;;;;;;;12.79;nan;-24174.25;5013863;28;20164;-74
2023/03/08 08:33:53;;;;;;;7.22;4.22;;;;;;;13.20;nan;-24185.63;5013228;28;20180;-75
2023/03/08 08:36:19;;;;;;;6.95;3.85;;;;;;;12.86;nan;-24176.06;5014059;28;20176;-75
2023/03/08 08:38:45;;;;;;;7.68;3.33;;;;;;;13.24;nan;-24186.63;5011411;28;20198;-77
2023/03/08 08:41:14;;;;;;;11.52;4.05;;;;;;;13.36;nan;-24190.00;5012116;28;20200;-75
2023/03/08 08:43:40;;;;;;;6.30;3.88;;;;;;;13.19;nan;-24185.34;5012015;28;20263;-76
2023/03/08 08:46:05;;;;;;;8.90;4.30;;;;;;;13.19;nan;-24185.34;5012639;28;20310;-76
2023/03/08 08:48:35;;;;;;;5.68;3.63;;;;;;;13.33;nan;-24189.00;5012310;28;20642;-74
2023/03/08 08:51:00;;;;;;;6.38;3.65;;;;;;;13.41;nan;-24191.38;5027481;28;20179;-74
2023/03/08 08:53:26;;;;;;;7.18;3.35;;;;;;;13.86;nan;-24203.88;5012059;28;20179;-75
2023/03/08 08:55:51;;;;;;;5.20;3.33;;;;;;;13.79;nan;-24201.78;5043875;28;20223;-75
2023/03/08 08:58:17;;;;;;;6.55;3.38;;;;;;;14.12;nan;-24211.19;5012195;28;20670;-75
2023/03/08 09:00:43;;;;;;;5.13;3.10;;;;;;;13.90;nan;-24205.00;5011594;28;20561;-74
2023/03/08 09:03:09;;;;;;;6.40;3.72;;;;;;;14.32;nan;-24216.66;5012781;28;20172;-77
2023/03/08 09:05:38;;;;;;;6.30;3.85;;;;;;;14.32;nan;-24216.66;5027618;28;20179;-76
2023/03/08 09:08:04;;;;;;;6.25;3.63;;;;;;;14.67;nan;-24226.19;5027166;28;20172;-74
2023/03/08 09:10:32;;;;;;;5.03;3.28;;;;;;;14.41;nan;-24219.03;5027514;28;20187;-76
2023/03/08 09:12:59;;;;;;;5.70;3.28;;;;;;;14.80;nan;-24229.84;5028226;28;20180;-76
2023/03/08 09:15:25;;;;;;;7.38;3.30;;;;;;;14.76;nan;-24228.84;5027827;28;20179;-76
2023/03/08 09:17:50;;;;;;;6.32;3.20;;;;;;;15.03;nan;-24236.44;5012867;28;20203;-74
2023/03/08 09:20:16;;;;;;;5.93;3.47;;;;;;;14.96;nan;-24234.47;5044517;28;20631;-77
2023/03/08 09:22:42;;;;;;;3.83;3.03;;;;;;;15.54;nan;-24250.44;5011385;28;20195;-74
2023/03/08 09:25:08;;;;;;;4.70;2.90;;;;;;;15.45;nan;-24247.91;5013105;28;20622;-77
2023/03/08 09:27:36;;;;;;;5.25;2.95;;;;;;;15.71;nan;-24255.06;5012156;28;20588;-77
2023/03/08 09:30:03;;;;;;;6.93;3.10;;;;;;;15.81;nan;-24257.84;5009419;28;20666;-74
2023/03/08 09:32:33;;;;;;;8.75;3.30;;;;;;;15.82;nan;-24258.28;5023424;28;20187;-77
2023/03/08 09:34:58;;;;;;;7.30;3.10;;;;;;;16.02;nan;-24263.59;5046926;28;20194;-75
2023/03/08 09:37:23;;;;;;;4.65;2.88;;;;;;;16.09;nan;-24265.56;5035385;28;20588;-78
2023/03/08 09:39:52;;;;;;;8.55;3.42;;;;;;;16.18;nan;-24268.22;5034420;28;20187;-76
2023/03/08 09:42:26;;;;;;;4.30;2.88;;;;;;;16.11;nan;-24266.25;5035360;28;20759;-75
2023/03/08 09:44:54;;;;;;;5.90;3.25;;;;;;;16.72;nan;-24283.16;5050356;28;20171;-76
2023/03/08 09:47:33;;;;;;;8.40;3.08;;;;;;;17.00;nan;-24290.72;5035054;28;20739;-77
2023/03/08 09:50:10;;;;;;;7.25;3.35;;;;;;;17.22;nan;-24297.00;5035118;28;20578;-77
2023/03/08 09:52:44;;;;;;;5.70;2.50;;;;;;;17.42;nan;-24302.28;5035180;28;20202;-76
2023/03/08 09:55:16;;;;;;;6.32;2.90;;;;;;;17.57;nan;-24306.63;5016837;28;20289;-71
2023/03/08 09:57:51;;;;;;;5.65;3.35;;;;;;;17.69;nan;-24309.69;5014495;28;20203;-71
2023/03/08 10:00:27;;;;;;;7.70;3.25;;;;;;;18.28;nan;-24326.00;5014964;28;20650;-71
2023/03/08 10:02:55;;;;;;;5.03;3.00;;;;;;;18.40;nan;-24329.34;5013632;28;20211;-69
2023/03/08 10:05:32;;;;;;;5.18;3.03;;;;;;;18.15;nan;-24322.38;5014506;28;20188;-70
2023/03/08 10:08:23;;;;;;;7.82;3.53;;;;;;;18.21;nan;-24324.06;5014489;28;20649;-69
2023/03/08 10:10:55;;;;;;;7.53;3.10;;;;;;;18.59;nan;-24334.50;5014923;28;20256;-69
2023/03/08 10:13:55;;;;;;;6.97;3.53;;;;;;;18.74;nan;-24338.81;5013896;28;20191;-70
2023/03/08 10:16:27;;;;;;;3.67;2.75;;;;;;;18.70;nan;-24337.56;5022845;28;20187;-69
2023/03/08 10:19:01;;;;;;;5.85;3.10;;;;;;;18.89;nan;-24342.84;5014354;28;20346;-70
2023/03/08 10:21:30;;;;;;;5.57;2.70;;;;;;;18.86;nan;-24342.03;5016216;28;20242;-70
2023/03/08 10:24:03;;;;;;;6.28;2.92;;;;;;;18.84;nan;-24341.47;5012980;28;20677;-70
2023/03/08 10:26:30;;;;;;;3.42;2.50;;;;;;;19.23;nan;-24352.31;5014436;28;20160;-70
2023/03/08 10:28:55;;;;;;;3.22;2.45;;;;;;;19.03;nan;-24346.75;5014403;28;20222;-72
2023/03/08 10:31:24;;;;;;;3.00;2.22;;;;;;;19.05;nan;-24347.31;5013894;28;20183;-70
2023/03/08 10:34:00;;;;;;;2.25;1.92;;;;;;;18.97;nan;-24345.22;5011601;28;20181;-71
2023/03/08 10:36:26;;;;;;;2.60;2.08;;;;;;;19.33;nan;-24354.97;5011153;28;20199;-71
2023/03/08 10:39:07;;;;;;;4.07;2.10;;;;;;;19.08;nan;-24348.16;5013772;28;20176;-71
2023/03/08 10:41:40;;;;;;;2.47;1.80;;;;;;;19.25;nan;-24352.75;5014306;28;20527;-71
2023/03/08 10:44:05;;;;;;;4.72;2.28;;;;;;;19.39;nan;-24356.78;5014161;28;20647;-71
2023/03/08 10:46:31;;;;;;;2.90;2.22;;;;;;;19.44;nan;-24357.88;5013922;28;20199;-69
2023/03/08 10:49:17;;;;;;;3.33;2.03;;;;;;;19.50;nan;-24359.69;5013492;28;20176;-71
2023/03/08 10:52:22;;;;;;;2.65;1.92;;;;;;;19.88;nan;-24370.13;5014567;28;20226;-71
2023/03/08 10:55:03;;;;;;;6.85;2.08;;;;;;;19.67;nan;-24364.44;5016326;28;20191;-70
2023/03/08 10:57:29;;;;;;;4.45;2.00;;;;;;;19.87;nan;-24369.84;5012314;28;20626;-72
2023/03/08 10:59:59;;;;;;;3.65;1.88;;;;;;;19.84;nan;-24369.00;5012771;28;20168;-68
2023/03/08 11:02:24;;;;;;;2.45;1.90;;;;;;;19.96;nan;-24372.34;5013581;28;20194;-75
2023/03/08 11:04:57;;;;;;;2.67;1.98;;;;;;;19.62;nan;-24363.03;5013556;28;20168;-71
2023/03/08 11:07:31;;;;;;;3.42;2.17;;;;;;;19.64;nan;-24363.44;5013352;28;20178;-70
2023/03/08 11:10:09;;;;;;;3.13;2.20;;;;;;;19.49;nan;-24359.41;5013263;28;20250;-70
2023/03/08 11:12:34;;;;;;;3.70;2.30;;;;;;;19.33;nan;-24355.09;5013500;28;20191;-70
2023/03/08 11:15:00;;;;;;;3.25;1.60;;;;;;;19.06;nan;-24347.44;5013631;28;20172;-72
2023/03/08 11:17:38;;;;;;;5.30;2.13;;;;;;;19.16;nan;-24350.22;5013129;28;20212;-70
2023/03/08 11:20:36;;;;;;;2.05;1.80;;;;;;;19.36;nan;-24355.81;5026818;28;20572;-70
2023/03/08 11:23:25;;;;;;;4.22;1.98;;;;;;;18.89;nan;-24343.00;5013438;28;20238;-70
2023/03/08 11:26:41;;;;;;;2.63;1.90;;;;;;;18.84;nan;-24341.47;5013970;28;20168;-69
2023/03/08 11:29:46;;;;;;;2.20;1.60;;;;;;;18.72;nan;-24338.13;4994853;28;20192;-71
2023/03/08 11:32:14;;;;;;;2.10;1.77;;;;;;;18.66;nan;-24336.59;4992968;28;20628;-71
2023/03/08 11:34:59;;;;;;;3.22;1.80;;;;;;;18.93;nan;-24344.13;4994034;28;20695;-71
2023/03/08 11:37:48;;;;;;;2.28;1.83;;;;;;;19.14;nan;-24349.69;4994225;28;20264;-72
2023/03/08 11:40:13;;;;;;;2.45;1.70;;;;;;;18.90;nan;-24343.13;4993760;28;20216;-72
2023/03/08 11:42:39;;;;;;;1.88;1.60;;;;;;;19.06;nan;-24347.59;4993288;28;20690;-69
2023/03/08 11:45:28;;;;;;;4.13;1.77;;;;;;;19.24;nan;-24352.59;4993437;28;20175;-70
2023/03/08 11:48:18;;;;;;;2.20;1.58;;;;;;;19.16;nan;-24350.38;4993635;28;20184;-73
2023/03/08 11:50:51;;;;;;;2.58;1.60;;;;;;;19.28;nan;-24353.56;4993621;28;20181;-70